sensor_id;sensor_type;location;lat;lon;timestamp;temperature;humidity
19952;DHT22;10137;49.406;19.484;2022-07-05T00:01:30;19.60;99.90
19952;DHT22;10137;49.406;19.484;2022-07-05T00:03:57;19.70;99.90
19952;DHT22;10137;49.406;19.484;2022-07-05T00:06:24;19.70;99.90
19952;DHT22;10137;49.406;19.484;2022-07-05T00:08:51;19.70;99.90
19952;DHT22;10137;49.406;19.484;2022-07-05T00:11:18;19.80;99.90
19952;DHT22;10137;49.406;19.484;2022-07-05T00:13:45;19.80;99.90
19952;DHT22;10137;49.406;19.484;2022-07-05T00:16:12;19.80;99.90
19952;DHT22;10137;49.406;19.484;2022-07-05T00:18:40;19.80;99.90
19952;DHT22;10137;49.406;19.484;2022-07-05T00:21:07;19.80;99.90
19952;DHT22;10137;49.406;19.484;2022-07-05T00:23:34;19.80;99.90
19952;DHT22;10137;49.406;19.484;2022-07-05T00:26:00;19.70;99.90
19952;DHT22;10137;49.406;19.484;2022-07-05T00:28:27;19.70;99.90
19952;DHT22;10137;49.406;19.484;2022-07-05T00:30:54;19.70;99.90
19952;DHT22;10137;49.406;19.484;2022-07-05T00:33:21;19.70;99.90
19952;DHT22;10137;49.406;19.484;2022-07-05T00:35:49;19.70;99.90
19952;DHT22;10137;49.406;19.484;2022-07-05T00:38:16;19.70;99.90
19952;DHT22;10137;49.406;19.484;2022-07-05T00:40:43;19.60;99.90
19952;DHT22;10137;49.406;19.484;2022-07-05T00:43:10;19.60;99.90
19952;DHT22;10137;49.406;19.484;2022-07-05T00:45:37;19.60;99.90
19952;DHT22;10137;49.406;19.484;2022-07-05T00:48:04;19.50;99.90
19952;DHT22;10137;49.406;19.484;2022-07-05T00:50:31;19.40;99.90
19952;DHT22;10137;49.406;19.484;2022-07-05T00:53:01;19.50;99.90
19952;DHT22;10137;49.406;19.484;2022-07-05T00:55:28;19.50;99.90
19952;DHT22;10137;49.406;19.484;2022-07-05T00:57:55;19.50;99.90
19952;DHT22;10137;49.406;19.484;2022-07-05T01:00:22;19.50;99.90
19952;DHT22;10137;49.406;19.484;2022-07-05T01:02:49;19.50;99.90
19952;DHT22;10137;49.406;19.484;2022-07-05T01:05:16;19.40;99.90
19952;DHT22;10137;49.406;19.484;2022-07-05T01:07:43;19.40;99.90
19952;DHT22;10137;49.406;19.484;2022-07-05T01:10:11;19.40;99.90
19952;DHT22;10137;49.406;19.484;2022-07-05T01:12:39;19.40;99.90
19952;DHT22;10137;49.406;19.484;2022-07-05T01:15:07;19.40;99.90
19952;DHT22;10137;49.406;19.484;2022-07-05T01:17:34;19.50;99.90
19952;DHT22;10137;49.406;19.484;2022-07-05T01:20:03;19.60;99.90
19952;DHT22;10137;49.406;19.484;2022-07-05T01:22:49;19.60;99.90
19952;DHT22;10137;49.406;19.484;2022-07-05T01:25:16;19.60;99.90
19952;DHT22;10137;49.406;19.484;2022-07-05T01:27:43;19.60;99.90
19952;DHT22;10137;49.406;19.484;2022-07-05T01:30:11;19.60;99.90
19952;DHT22;10137;49.406;19.484;2022-07-05T01:32:38;19.50;99.90
19952;DHT22;10137;49.406;19.484;2022-07-05T01:35:07;19.60;99.90
19952;DHT22;10137;49.406;19.484;2022-07-05T01:37:35;19.50;99.90
19952;DHT22;10137;49.406;19.484;2022-07-05T01:40:04;19.50;99.90
19952;DHT22;10137;49.406;19.484;2022-07-05T01:42:31;19.50;99.90
19952;DHT22;10137;49.406;19.484;2022-07-05T01:44:58;19.50;99.90
19952;DHT22;10137;49.406;19.484;2022-07-05T01:47:25;19.60;99.90
19952;DHT22;10137;49.406;19.484;2022-07-05T01:49:53;19.50;99.90
19952;DHT22;10137;49.406;19.484;2022-07-05T01:52:22;19.40;99.90
19952;DHT22;10137;49.406;19.484;2022-07-05T01:54:52;19.50;99.90
19952;DHT22;10137;49.406;19.484;2022-07-05T01:57:19;19.50;99.90
19952;DHT22;10137;49.406;19.484;2022-07-05T01:59:46;19.30;99.90
19952;DHT22;10137;49.406;19.484;2022-07-05T02:02:13;19.30;99.90
19952;DHT22;10137;49.406;19.484;2022-07-05T02:04:40;19.20;99.90
19952;DHT22;10137;49.406;19.484;2022-07-05T02:07:09;19.10;99.90
19952;DHT22;10137;49.406;19.484;2022-07-05T02:09:36;19.20;99.90
19952;DHT22;10137;49.406;19.484;2022-07-05T02:12:05;19.10;99.90
19952;DHT22;10137;49.406;19.484;2022-07-05T02:14:32;19.10;99.90
19952;DHT22;10137;49.406;19.484;2022-07-05T02:16:59;19.10;99.90
19952;DHT22;10137;49.406;19.484;2022-07-05T02:19:26;19.10;99.90
19952;DHT22;10137;49.406;19.484;2022-07-05T02:21:54;19.10;99.90
19952;DHT22;10137;49.406;19.484;2022-07-05T02:24:21;19.10;99.90
19952;DHT22;10137;49.406;19.484;2022-07-05T02:26:48;19.10;99.90
19952;DHT22;10137;49.406;19.484;2022-07-05T02:29:17;19.10;99.90
19952;DHT22;10137;49.406;19.484;2022-07-05T02:31:44;19.10;99.90
19952;DHT22;10137;49.406;19.484;2022-07-05T02:34:11;19.10;99.90
19952;DHT22;10137;49.406;19.484;2022-07-05T02:36:38;19.10;99.90
19952;DHT22;10137;49.406;19.484;2022-07-05T02:39:05;19.10;99.90
19952;DHT22;10137;49.406;19.484;2022-07-05T02:41:31;19.10;99.90
19952;DHT22;10137;49.406;19.484;2022-07-05T02:43:58;19.00;99.90
19952;DHT22;10137;49.406;19.484;2022-07-05T02:46:26;18.90;99.90
19952;DHT22;10137;49.406;19.484;2022-07-05T02:48:53;18.90;99.90
19952;DHT22;10137;49.406;19.484;2022-07-05T02:51:20;18.90;99.90
19952;DHT22;10137;49.406;19.484;2022-07-05T02:53:47;18.90;99.90
19952;DHT22;10137;49.406;19.484;2022-07-05T02:56:14;18.90;99.90
19952;DHT22;10137;49.406;19.484;2022-07-05T02:58:41;18.90;99.90
19952;DHT22;10137;49.406;19.484;2022-07-05T03:01:08;18.90;99.90
19952;DHT22;10137;49.406;19.484;2022-07-05T03:03:36;19.00;99.90
19952;DHT22;10137;49.406;19.484;2022-07-05T03:06:03;19.00;99.90
19952;DHT22;10137;49.406;19.484;2022-07-05T03:08:30;18.80;99.90
19952;DHT22;10137;49.406;19.484;2022-07-05T03:10:57;18.80;99.90
19952;DHT22;10137;49.406;19.484;2022-07-05T03:13:24;18.90;99.90
19952;DHT22;10137;49.406;19.484;2022-07-05T03:15:51;18.90;99.90
19952;DHT22;10137;49.406;19.484;2022-07-05T03:18:17;18.90;99.90
19952;DHT22;10137;49.406;19.484;2022-07-05T03:20:46;19.00;99.90
19952;DHT22;10137;49.406;19.484;2022-07-05T03:23:13;18.90;99.90
19952;DHT22;10137;49.406;19.484;2022-07-05T03:25:39;18.90;99.90
19952;DHT22;10137;49.406;19.484;2022-07-05T03:28:06;19.00;99.90
19952;DHT22;10137;49.406;19.484;2022-07-05T03:30:33;19.00;99.90
19952;DHT22;10137;49.406;19.484;2022-07-05T03:33:00;19.00;99.90
19952;DHT22;10137;49.406;19.484;2022-07-05T03:35:27;19.00;99.90
19952;DHT22;10137;49.406;19.484;2022-07-05T03:37:56;19.00;99.90
19952;DHT22;10137;49.406;19.484;2022-07-05T03:40:23;19.10;99.90
19952;DHT22;10137;49.406;19.484;2022-07-05T03:42:50;19.10;99.90
19952;DHT22;10137;49.406;19.484;2022-07-05T03:45:17;19.10;99.90
19952;DHT22;10137;49.406;19.484;2022-07-05T03:47:44;19.10;99.90
19952;DHT22;10137;49.406;19.484;2022-07-05T03:50:11;19.10;99.90
19952;DHT22;10137;49.406;19.484;2022-07-05T03:52:37;19.10;99.90
19952;DHT22;10137;49.406;19.484;2022-07-05T03:55:06;19.10;99.90
19952;DHT22;10137;49.406;19.484;2022-07-05T03:57:34;19.10;99.90
19952;DHT22;10137;49.406;19.484;2022-07-05T04:00:01;19.20;99.90
19952;DHT22;10137;49.406;19.484;2022-07-05T04:02:28;19.20;99.90
19952;DHT22;10137;49.406;19.484;2022-07-05T04:04:55;19.30;99.90
19952;DHT22;10137;49.406;19.484;2022-07-05T04:07:21;19.30;99.90
19952;DHT22;10137;49.406;19.484;2022-07-05T04:09:48;19.40;99.90
19952;DHT22;10137;49.406;19.484;2022-07-05T04:12:17;19.50;99.90
19952;DHT22;10137;49.406;19.484;2022-07-05T04:14:43;19.50;99.90
19952;DHT22;10137;49.406;19.484;2022-07-05T04:17:10;19.60;99.90
19952;DHT22;10137;49.406;19.484;2022-07-05T04:19:37;19.60;99.90
19952;DHT22;10137;49.406;19.484;2022-07-05T04:22:04;19.60;99.90
19952;DHT22;10137;49.406;19.484;2022-07-05T04:24:31;19.50;99.90
19952;DHT22;10137;49.406;19.484;2022-07-05T04:27:19;19.60;99.90
19952;DHT22;10137;49.406;19.484;2022-07-05T04:29:46;19.60;99.90
19952;DHT22;10137;49.406;19.484;2022-07-05T04:32:13;19.60;99.90
19952;DHT22;10137;49.406;19.484;2022-07-05T04:34:40;19.60;99.90
19952;DHT22;10137;49.406;19.484;2022-07-05T04:37:07;19.60;99.90
19952;DHT22;10137;49.406;19.484;2022-07-05T04:39:34;19.60;99.90
19952;DHT22;10137;49.406;19.484;2022-07-05T04:42:01;19.60;99.90
19952;DHT22;10137;49.406;19.484;2022-07-05T04:44:29;19.50;99.90
19952;DHT22;10137;49.406;19.484;2022-07-05T04:46:56;19.50;99.90
19952;DHT22;10137;49.406;19.484;2022-07-05T04:49:23;19.40;99.90
19952;DHT22;10137;49.406;19.484;2022-07-05T04:51:50;19.40;99.90
19952;DHT22;10137;49.406;19.484;2022-07-05T04:54:16;19.40;99.90
19952;DHT22;10137;49.406;19.484;2022-07-05T04:56:44;19.40;99.90
19952;DHT22;10137;49.406;19.484;2022-07-05T04:59:11;19.30;99.90
19952;DHT22;10137;49.406;19.484;2022-07-05T05:01:39;19.30;99.90
19952;DHT22;10137;49.406;19.484;2022-07-05T05:04:06;19.20;99.90
19952;DHT22;10137;49.406;19.484;2022-07-05T05:06:33;19.20;99.90
19952;DHT22;10137;49.406;19.484;2022-07-05T05:09:00;19.20;99.90
19952;DHT22;10137;49.406;19.484;2022-07-05T05:11:27;19.10;99.90
19952;DHT22;10137;49.406;19.484;2022-07-05T05:13:54;19.10;99.90
19952;DHT22;10137;49.406;19.484;2022-07-05T05:16:21;19.10;99.90
19952;DHT22;10137;49.406;19.484;2022-07-05T05:18:49;18.90;99.90
19952;DHT22;10137;49.406;19.484;2022-07-05T05:21:16;18.90;99.90
19952;DHT22;10137;49.406;19.484;2022-07-05T05:23:43;18.90;99.90
19952;DHT22;10137;49.406;19.484;2022-07-05T05:26:10;18.80;99.90
19952;DHT22;10137;49.406;19.484;2022-07-05T05:28:37;18.80;99.90
19952;DHT22;10137;49.406;19.484;2022-07-05T05:31:04;18.90;99.90
19952;DHT22;10137;49.406;19.484;2022-07-05T05:33:31;18.90;99.90
19952;DHT22;10137;49.406;19.484;2022-07-05T05:36:00;18.80;99.90
19952;DHT22;10137;49.406;19.484;2022-07-05T05:38:27;18.80;99.90
19952;DHT22;10137;49.406;19.484;2022-07-05T05:40:54;18.70;99.90
19952;DHT22;10137;49.406;19.484;2022-07-05T05:43:21;18.70;99.90
19952;DHT22;10137;49.406;19.484;2022-07-05T05:45:48;18.60;99.90
19952;DHT22;10137;49.406;19.484;2022-07-05T05:48:15;18.60;99.90
19952;DHT22;10137;49.406;19.484;2022-07-05T05:50:42;18.60;99.90
19952;DHT22;10137;49.406;19.484;2022-07-05T05:53:10;18.50;99.90
19952;DHT22;10137;49.406;19.484;2022-07-05T05:55:37;18.50;99.90
19952;DHT22;10137;49.406;19.484;2022-07-05T05:58:11;18.50;99.90
19952;DHT22;10137;49.406;19.484;2022-07-05T06:00:38;18.50;99.90
19952;DHT22;10137;49.406;19.484;2022-07-05T06:03:05;18.60;99.90
19952;DHT22;10137;49.406;19.484;2022-07-05T06:05:32;18.50;99.90
19952;DHT22;10137;49.406;19.484;2022-07-05T06:07:59;18.50;99.90
19952;DHT22;10137;49.406;19.484;2022-07-05T06:10:29;18.60;99.90
19952;DHT22;10137;49.406;19.484;2022-07-05T06:12:58;18.60;99.90
19952;DHT22;10137;49.406;19.484;2022-07-05T06:15:26;18.70;99.90
19952;DHT22;10137;49.406;19.484;2022-07-05T06:17:53;18.70;99.90
19952;DHT22;10137;49.406;19.484;2022-07-05T06:20:22;18.90;99.90
19952;DHT22;10137;49.406;19.484;2022-07-05T06:22:50;18.90;99.90
19952;DHT22;10137;49.406;19.484;2022-07-05T06:25:17;19.00;99.90
19952;DHT22;10137;49.406;19.484;2022-07-05T06:27:47;18.90;99.90
19952;DHT22;10137;49.406;19.484;2022-07-05T06:30:17;19.00;99.90
19952;DHT22;10137;49.406;19.484;2022-07-05T06:32:45;19.00;99.90
19952;DHT22;10137;49.406;19.484;2022-07-05T06:35:13;19.10;99.90
19952;DHT22;10137;49.406;19.484;2022-07-05T06:37:42;19.10;99.90
19952;DHT22;10137;49.406;19.484;2022-07-05T06:40:10;19.00;99.90
19952;DHT22;10137;49.406;19.484;2022-07-05T06:42:38;19.10;99.90
19952;DHT22;10137;49.406;19.484;2022-07-05T06:45:07;19.10;99.90
19952;DHT22;10137;49.406;19.484;2022-07-05T06:47:35;19.10;99.90
19952;DHT22;10137;49.406;19.484;2022-07-05T06:50:02;19.00;99.90
19952;DHT22;10137;49.406;19.484;2022-07-05T06:52:29;19.00;99.90
19952;DHT22;10137;49.406;19.484;2022-07-05T06:54:57;19.00;99.90
19952;DHT22;10137;49.406;19.484;2022-07-05T06:57:24;19.10;99.90
19952;DHT22;10137;49.406;19.484;2022-07-05T06:59:51;19.00;99.90
19952;DHT22;10137;49.406;19.484;2022-07-05T07:02:19;19.00;99.90
19952;DHT22;10137;49.406;19.484;2022-07-05T07:04:47;19.10;99.90
19952;DHT22;10137;49.406;19.484;2022-07-05T07:07:15;19.10;99.90
19952;DHT22;10137;49.406;19.484;2022-07-05T07:09:59;19.20;99.90
19952;DHT22;10137;49.406;19.484;2022-07-05T07:12:27;19.10;99.90
19952;DHT22;10137;49.406;19.484;2022-07-05T07:14:55;19.20;99.90
19952;DHT22;10137;49.406;19.484;2022-07-05T07:17:23;19.30;99.90
19952;DHT22;10137;49.406;19.484;2022-07-05T07:19:50;19.40;99.90
19952;DHT22;10137;49.406;19.484;2022-07-05T07:22:17;19.60;99.90
19952;DHT22;10137;49.406;19.484;2022-07-05T07:24:44;19.60;99.90
19952;DHT22;10137;49.406;19.484;2022-07-05T07:27:11;19.70;99.90
19952;DHT22;10137;49.406;19.484;2022-07-05T07:29:39;19.60;99.90
19952;DHT22;10137;49.406;19.484;2022-07-05T07:32:07;19.50;99.90
19952;DHT22;10137;49.406;19.484;2022-07-05T07:34:36;19.50;99.90
19952;DHT22;10137;49.406;19.484;2022-07-05T07:37:04;19.50;99.90
19952;DHT22;10137;49.406;19.484;2022-07-05T07:39:32;19.50;99.90
19952;DHT22;10137;49.406;19.484;2022-07-05T07:41:58;19.30;99.90
19952;DHT22;10137;49.406;19.484;2022-07-05T07:44:26;19.30;99.90
19952;DHT22;10137;49.406;19.484;2022-07-05T07:46:53;19.30;99.90
19952;DHT22;10137;49.406;19.484;2022-07-05T07:49:20;19.30;99.90
19952;DHT22;10137;49.406;19.484;2022-07-05T07:51:48;19.20;99.90
19952;DHT22;10137;49.406;19.484;2022-07-05T07:54:15;19.20;99.90
19952;DHT22;10137;49.406;19.484;2022-07-05T07:56:42;19.30;99.90
19952;DHT22;10137;49.406;19.484;2022-07-05T07:59:09;19.20;99.90
19952;DHT22;10137;49.406;19.484;2022-07-05T08:01:36;19.30;99.90
19952;DHT22;10137;49.406;19.484;2022-07-05T08:04:04;19.20;99.90
19952;DHT22;10137;49.406;19.484;2022-07-05T08:06:31;19.10;99.90
19952;DHT22;10137;49.406;19.484;2022-07-05T08:08:59;19.10;99.90
19952;DHT22;10137;49.406;19.484;2022-07-05T08:11:26;19.00;99.90
19952;DHT22;10137;49.406;19.484;2022-07-05T08:13:53;19.00;99.90
19952;DHT22;10137;49.406;19.484;2022-07-05T08:16:21;18.90;99.90
19952;DHT22;10137;49.406;19.484;2022-07-05T08:18:48;18.90;99.90
19952;DHT22;10137;49.406;19.484;2022-07-05T08:21:33;18.90;99.90
19952;DHT22;10137;49.406;19.484;2022-07-05T08:24:05;19.00;99.90
19952;DHT22;10137;49.406;19.484;2022-07-05T08:26:33;19.00;99.90
19952;DHT22;10137;49.406;19.484;2022-07-05T08:29:02;19.00;99.90
19952;DHT22;10137;49.406;19.484;2022-07-05T08:31:31;19.00;99.90
19952;DHT22;10137;49.406;19.484;2022-07-05T08:33:59;19.00;99.90
19952;DHT22;10137;49.406;19.484;2022-07-05T08:36:26;19.10;99.90
19952;DHT22;10137;49.406;19.484;2022-07-05T08:38:53;19.10;99.90
19952;DHT22;10137;49.406;19.484;2022-07-05T08:41:22;19.10;99.90
19952;DHT22;10137;49.406;19.484;2022-07-05T08:43:50;19.10;99.90
19952;DHT22;10137;49.406;19.484;2022-07-05T08:46:19;19.20;99.90
19952;DHT22;10137;49.406;19.484;2022-07-05T08:48:48;19.10;99.90
19952;DHT22;10137;49.406;19.484;2022-07-05T08:51:16;19.20;99.90
19952;DHT22;10137;49.406;19.484;2022-07-05T08:53:45;19.20;99.90
19952;DHT22;10137;49.406;19.484;2022-07-05T08:56:13;19.30;99.90
19952;DHT22;10137;49.406;19.484;2022-07-05T08:58:41;19.30;99.90
19952;DHT22;10137;49.406;19.484;2022-07-05T09:01:10;19.30;99.90
19952;DHT22;10137;49.406;19.484;2022-07-05T09:03:39;19.30;99.90
19952;DHT22;10137;49.406;19.484;2022-07-05T09:06:10;19.40;99.90
19952;DHT22;10137;49.406;19.484;2022-07-05T09:08:39;19.30;99.90
19952;DHT22;10137;49.406;19.484;2022-07-05T09:11:07;19.40;99.90
19952;DHT22;10137;49.406;19.484;2022-07-05T09:13:35;19.40;99.90
19952;DHT22;10137;49.406;19.484;2022-07-05T09:16:04;19.50;99.90
19952;DHT22;10137;49.406;19.484;2022-07-05T09:18:44;19.50;99.90
19952;DHT22;10137;49.406;19.484;2022-07-05T09:21:16;19.60;99.90
19952;DHT22;10137;49.406;19.484;2022-07-05T09:23:44;19.60;99.90
19952;DHT22;10137;49.406;19.484;2022-07-05T09:26:11;19.70;99.90
19952;DHT22;10137;49.406;19.484;2022-07-05T09:28:54;19.80;99.90
19952;DHT22;10137;49.406;19.484;2022-07-05T09:31:33;19.80;99.90
19952;DHT22;10137;49.406;19.484;2022-07-05T09:34:04;19.90;99.90
19952;DHT22;10137;49.406;19.484;2022-07-05T09:36:51;19.90;99.90
19952;DHT22;10137;49.406;19.484;2022-07-05T09:39:34;20.10;99.90
19952;DHT22;10137;49.406;19.484;2022-07-05T09:42:16;20.20;99.90
19952;DHT22;10137;49.406;19.484;2022-07-05T09:44:47;20.10;99.90
19952;DHT22;10137;49.406;19.484;2022-07-05T09:47:16;20.10;99.90
19952;DHT22;10137;49.406;19.484;2022-07-05T09:49:46;20.10;99.90
19952;DHT22;10137;49.406;19.484;2022-07-05T09:52:26;20.30;99.90
19952;DHT22;10137;49.406;19.484;2022-07-05T09:55:04;20.50;99.90
19952;DHT22;10137;49.406;19.484;2022-07-05T09:57:33;20.50;99.90
19952;DHT22;10137;49.406;19.484;2022-07-05T10:00:02;20.50;99.90
19952;DHT22;10137;49.406;19.484;2022-07-05T10:02:41;20.50;99.90
19952;DHT22;10137;49.406;19.484;2022-07-05T10:05:16;20.60;99.90
19952;DHT22;10137;49.406;19.484;2022-07-05T10:07:44;20.60;99.90
19952;DHT22;10137;49.406;19.484;2022-07-05T10:10:13;20.60;99.90
19952;DHT22;10137;49.406;19.484;2022-07-05T10:12:42;20.50;99.90
19952;DHT22;10137;49.406;19.484;2022-07-05T10:15:10;20.50;99.90
19952;DHT22;10137;49.406;19.484;2022-07-05T10:17:41;20.40;99.90
19952;DHT22;10137;49.406;19.484;2022-07-05T10:20:17;20.30;99.90
19952;DHT22;10137;49.406;19.484;2022-07-05T10:22:44;20.20;99.90
19952;DHT22;10137;49.406;19.484;2022-07-05T10:25:13;20.10;99.90
19952;DHT22;10137;49.406;19.484;2022-07-05T10:27:40;20.10;99.90
19952;DHT22;10137;49.406;19.484;2022-07-05T10:30:10;20.00;99.90
19952;DHT22;10137;49.406;19.484;2022-07-05T10:32:38;20.10;99.90
19952;DHT22;10137;49.406;19.484;2022-07-05T10:35:08;20.10;99.90
19952;DHT22;10137;49.406;19.484;2022-07-05T10:37:36;20.10;99.90
19952;DHT22;10137;49.406;19.484;2022-07-05T10:40:04;20.10;99.90
19952;DHT22;10137;49.406;19.484;2022-07-05T10:42:36;20.10;99.90
19952;DHT22;10137;49.406;19.484;2022-07-05T10:45:23;20.10;99.90
19952;DHT22;10137;49.406;19.484;2022-07-05T10:48:14;20.20;99.90
19952;DHT22;10137;49.406;19.484;2022-07-05T10:50:47;20.00;99.90
19952;DHT22;10137;49.406;19.484;2022-07-05T10:53:16;20.10;99.90
19952;DHT22;10137;49.406;19.484;2022-07-05T10:55:57;20.30;99.90
19952;DHT22;10137;49.406;19.484;2022-07-05T10:58:29;20.40;99.90
19952;DHT22;10137;49.406;19.484;2022-07-05T11:04:23;20.30;99.90
19952;DHT22;10137;49.406;19.484;2022-07-05T11:06:54;20.40;99.90
19952;DHT22;10137;49.406;19.484;2022-07-05T11:09:21;20.30;99.90
19952;DHT22;10137;49.406;19.484;2022-07-05T11:12:05;20.30;99.90
19952;DHT22;10137;49.406;19.484;2022-07-05T11:14:36;20.10;99.90
19952;DHT22;10137;49.406;19.484;2022-07-05T11:17:18;20.10;99.90
19952;DHT22;10137;49.406;19.484;2022-07-05T11:20:15;20.00;99.90
19952;DHT22;10137;49.406;19.484;2022-07-05T11:23:08;20.00;99.90
19952;DHT22;10137;49.406;19.484;2022-07-05T11:25:38;20.00;99.90
19952;DHT22;10137;49.406;19.484;2022-07-05T11:28:08;20.00;99.90
19952;DHT22;10137;49.406;19.484;2022-07-05T11:30:49;20.00;99.90
19952;DHT22;10137;49.406;19.484;2022-07-05T11:33:26;20.00;99.90
19952;DHT22;10137;49.406;19.484;2022-07-05T11:35:53;20.10;99.90
19952;DHT22;10137;49.406;19.484;2022-07-05T11:38:23;20.10;99.90
19952;DHT22;10137;49.406;19.484;2022-07-05T11:40:51;20.20;99.90
19952;DHT22;10137;49.406;19.484;2022-07-05T11:43:25;20.30;99.90
19952;DHT22;10137;49.406;19.484;2022-07-05T11:45:56;20.40;99.90
19952;DHT22;10137;49.406;19.484;2022-07-05T11:48:25;20.40;99.90
19952;DHT22;10137;49.406;19.484;2022-07-05T11:50:52;20.40;99.90
19952;DHT22;10137;49.406;19.484;2022-07-05T11:53:27;20.40;99.90
19952;DHT22;10137;49.406;19.484;2022-07-05T11:55:55;20.40;99.90
19952;DHT22;10137;49.406;19.484;2022-07-05T11:58:30;20.30;99.90
19952;DHT22;10137;49.406;19.484;2022-07-05T12:00:57;20.40;99.90
19952;DHT22;10137;49.406;19.484;2022-07-05T12:03:24;20.40;99.90
19952;DHT22;10137;49.406;19.484;2022-07-05T12:05:51;20.40;99.90
19952;DHT22;10137;49.406;19.484;2022-07-05T12:08:22;20.60;99.90
19952;DHT22;10137;49.406;19.484;2022-07-05T12:10:51;20.70;99.90
19952;DHT22;10137;49.406;19.484;2022-07-05T12:13:46;20.80;99.90
19952;DHT22;10137;49.406;19.484;2022-07-05T12:16:13;20.80;99.90
19952;DHT22;10137;49.406;19.484;2022-07-05T12:18:48;20.90;99.90
19952;DHT22;10137;49.406;19.484;2022-07-05T12:21:15;20.90;99.90
19952;DHT22;10137;49.406;19.484;2022-07-05T12:23:42;21.00;99.90
19952;DHT22;10137;49.406;19.484;2022-07-05T12:26:12;21.20;99.90
19952;DHT22;10137;49.406;19.484;2022-07-05T12:28:40;21.30;99.90
19952;DHT22;10137;49.406;19.484;2022-07-05T12:31:17;21.10;99.90
19952;DHT22;10137;49.406;19.484;2022-07-05T12:33:45;20.90;99.90
19952;DHT22;10137;49.406;19.484;2022-07-05T12:36:12;21.10;99.90
19952;DHT22;10137;49.406;19.484;2022-07-05T12:38:40;21.20;99.90
19952;DHT22;10137;49.406;19.484;2022-07-05T12:41:07;21.40;99.90
19952;DHT22;10137;49.406;19.484;2022-07-05T12:43:50;21.40;99.90
19952;DHT22;10137;49.406;19.484;2022-07-05T12:46:17;21.40;99.90
19952;DHT22;10137;49.406;19.484;2022-07-05T12:48:44;21.40;99.90
19952;DHT22;10137;49.406;19.484;2022-07-05T12:51:31;21.50;99.90
19952;DHT22;10137;49.406;19.484;2022-07-05T12:53:59;21.40;99.90
19952;DHT22;10137;49.406;19.484;2022-07-05T12:56:46;21.40;99.90
19952;DHT22;10137;49.406;19.484;2022-07-05T12:59:32;21.50;99.90
19952;DHT22;10137;49.406;19.484;2022-07-05T13:02:00;21.60;99.90
19952;DHT22;10137;49.406;19.484;2022-07-05T13:04:27;21.80;99.90
19952;DHT22;10137;49.406;19.484;2022-07-05T13:06:56;21.90;99.90
19952;DHT22;10137;49.406;19.484;2022-07-05T13:09:32;22.10;99.90
19952;DHT22;10137;49.406;19.484;2022-07-05T13:12:09;22.20;99.90
19952;DHT22;10137;49.406;19.484;2022-07-05T13:14:39;22.20;99.90
19952;DHT22;10137;49.406;19.484;2022-07-05T13:17:06;22.20;99.90
19952;DHT22;10137;49.406;19.484;2022-07-05T13:19:33;22.20;99.90
19952;DHT22;10137;49.406;19.484;2022-07-05T13:22:00;22.00;99.90
19952;DHT22;10137;49.406;19.484;2022-07-05T13:24:28;21.90;99.90
19952;DHT22;10137;49.406;19.484;2022-07-05T13:26:55;22.00;99.90
19952;DHT22;10137;49.406;19.484;2022-07-05T13:29:22;21.90;99.90
19952;DHT22;10137;49.406;19.484;2022-07-05T13:31:51;22.10;99.90
19952;DHT22;10137;49.406;19.484;2022-07-05T13:34:18;22.10;99.90
19952;DHT22;10137;49.406;19.484;2022-07-05T13:36:47;22.10;99.90
19952;DHT22;10137;49.406;19.484;2022-07-05T13:39:14;22.00;99.90
19952;DHT22;10137;49.406;19.484;2022-07-05T13:41:41;22.20;99.90
19952;DHT22;10137;49.406;19.484;2022-07-05T13:44:08;22.30;99.90
19952;DHT22;10137;49.406;19.484;2022-07-05T13:46:35;22.30;99.90
19952;DHT22;10137;49.406;19.484;2022-07-05T13:49:04;22.40;99.90
19952;DHT22;10137;49.406;19.484;2022-07-05T13:51:30;22.40;99.90
19952;DHT22;10137;49.406;19.484;2022-07-05T13:53:57;22.40;99.90
19952;DHT22;10137;49.406;19.484;2022-07-05T13:56:24;22.00;99.90
19952;DHT22;10137;49.406;19.484;2022-07-05T13:58:52;22.10;99.90
19952;DHT22;10137;49.406;19.484;2022-07-05T14:01:19;22.10;99.90
19952;DHT22;10137;49.406;19.484;2022-07-05T14:03:51;22.10;99.90
19952;DHT22;10137;49.406;19.484;2022-07-05T14:06:20;22.20;99.90
19952;DHT22;10137;49.406;19.484;2022-07-05T14:08:47;22.10;99.90
19952;DHT22;10137;49.406;19.484;2022-07-05T14:11:14;22.00;99.90
19952;DHT22;10137;49.406;19.484;2022-07-05T14:13:41;21.90;99.90
19952;DHT22;10137;49.406;19.484;2022-07-05T14:16:08;21.90;99.90
19952;DHT22;10137;49.406;19.484;2022-07-05T14:18:35;21.80;99.90
19952;DHT22;10137;49.406;19.484;2022-07-05T14:21:02;21.70;99.90
19952;DHT22;10137;49.406;19.484;2022-07-05T14:23:31;21.60;99.90
19952;DHT22;10137;49.406;19.484;2022-07-05T14:25:58;21.40;99.90
19952;DHT22;10137;49.406;19.484;2022-07-05T14:28:25;21.50;99.90
19952;DHT22;10137;49.406;19.484;2022-07-05T14:30:52;21.40;99.90
19952;DHT22;10137;49.406;19.484;2022-07-05T14:33:19;21.50;99.90
19952;DHT22;10137;49.406;19.484;2022-07-05T14:35:47;21.60;99.90
19952;DHT22;10137;49.406;19.484;2022-07-05T14:38:14;21.60;99.90
19952;DHT22;10137;49.406;19.484;2022-07-05T14:40:42;21.50;99.90
19952;DHT22;10137;49.406;19.484;2022-07-05T14:43:09;21.60;99.90
19952;DHT22;10137;49.406;19.484;2022-07-05T14:45:36;21.60;99.90
19952;DHT22;10137;49.406;19.484;2022-07-05T14:48:04;21.40;99.90
19952;DHT22;10137;49.406;19.484;2022-07-05T14:50:31;21.40;99.90
19952;DHT22;10137;49.406;19.484;2022-07-05T14:52:58;21.60;99.90
19952;DHT22;10137;49.406;19.484;2022-07-05T14:55:31;21.80;99.90
19952;DHT22;10137;49.406;19.484;2022-07-05T14:57:59;21.70;99.90
19952;DHT22;10137;49.406;19.484;2022-07-05T15:00:26;21.60;99.90
19952;DHT22;10137;49.406;19.484;2022-07-05T15:02:53;21.50;99.90
19952;DHT22;10137;49.406;19.484;2022-07-05T15:05:20;21.40;99.90
19952;DHT22;10137;49.406;19.484;2022-07-05T15:07:47;21.40;99.90
19952;DHT22;10137;49.406;19.484;2022-07-05T15:10:14;21.40;99.90
19952;DHT22;10137;49.406;19.484;2022-07-05T15:12:40;21.30;99.90
19952;DHT22;10137;49.406;19.484;2022-07-05T15:15:10;21.10;99.90
19952;DHT22;10137;49.406;19.484;2022-07-05T15:17:37;21.10;99.90
19952;DHT22;10137;49.406;19.484;2022-07-05T15:20:04;21.10;99.90
19952;DHT22;10137;49.406;19.484;2022-07-05T15:22:31;21.00;99.90
19952;DHT22;10137;49.406;19.484;2022-07-05T15:24:58;20.90;99.90
19952;DHT22;10137;49.406;19.484;2022-07-05T15:27:25;21.00;99.90
19952;DHT22;10137;49.406;19.484;2022-07-05T15:29:56;20.90;99.90